createdAt,value
2022-11-15T00:00:25.340Z,77.55
2022-11-15T00:03:10.926Z,72.88
2022-11-15T00:06:02.818Z,73.18
2022-11-15T00:08:48.447Z,77.80
2022-11-15T00:11:34.148Z,77.40
2022-11-15T00:14:20.173Z,76.22
2022-11-15T00:17:06.170Z,85.40
2022-11-15T00:19:51.953Z,81.50
2022-11-15T00:22:39.502Z,79.97
2022-11-15T00:25:25.491Z,80.50
2022-11-15T00:28:11.577Z,82.38
2022-11-15T00:31:07.585Z,79.45
2022-11-15T00:33:53.684Z,86.72
2022-11-15T00:36:40.361Z,94.70
2022-11-15T00:39:26.384Z,102.43
2022-11-15T00:42:12.358Z,95.50
2022-11-15T00:44:58.013Z,100.40
2022-11-15T00:47:47.399Z,89.35
2022-11-15T00:50:33.186Z,97.80
2022-11-15T00:53:19.280Z,103.38
2022-11-15T00:56:05.782Z,90.55
2022-11-15T00:58:51.659Z,94.55
2022-11-15T01:01:37.164Z,96.47
2022-11-15T01:04:23.142Z,99.80
2022-11-15T01:07:08.890Z,100.63
2022-11-15T01:09:55.089Z,93.40
2022-11-15T01:12:41.032Z,94.63
2022-11-15T01:15:27.103Z,100.07
2022-11-15T01:18:14.334Z,97.15
2022-11-15T01:21:00.526Z,97.18
2022-11-15T01:23:46.565Z,92.25
2022-11-15T01:31:18.842Z,97.07
2022-11-15T01:34:05.128Z,90.60
2022-11-15T01:37:15.722Z,82.80
2022-11-15T01:40:02.041Z,90.72
2022-11-15T01:42:47.787Z,87.53
2022-11-15T01:45:47.506Z,87.30
2022-11-15T02:03:39.847Z,99.57
2022-11-15T02:26:08.631Z,104.22
2022-11-15T02:29:30.411Z,107.07
2022-11-15T02:32:39.214Z,108.47
2022-11-15T02:35:57.424Z,100.97
2022-11-15T02:39:14.829Z,111.80
2022-11-15T02:42:36.268Z,117.45
2022-11-15T02:45:34.652Z,110.03
2022-11-15T02:48:24.551Z,116.07
2022-11-15T02:51:11.419Z,115.45
2022-11-15T02:53:58.423Z,127.25
2022-11-15T02:56:46.892Z,108.15
2022-11-15T03:07:02.180Z,104.95
2022-11-15T03:09:56.424Z,99.00
2022-11-15T03:13:00.567Z,108.03
2022-11-15T03:16:17.755Z,106.05
2022-11-15T03:19:45.041Z,104.72
2022-11-15T03:23:07.604Z,97.68
2022-11-15T03:26:14.248Z,114.32
2022-11-15T03:29:09.429Z,109.57
2022-11-15T03:32:15.076Z,103.72
2022-11-15T03:35:12.931Z,104.75
2022-11-15T03:38:16.641Z,114.53
2022-11-15T03:41:17.648Z,103.38
2022-11-15T03:44:30.129Z,107.55
2022-11-15T03:47:35.491Z,104.20
2022-11-15T03:50:24.321Z,102.18
2022-11-15T03:53:11.107Z,105.60
2022-11-15T03:55:56.821Z,106.53
2022-11-15T03:58:42.309Z,106.22
2022-11-15T04:01:28.273Z,106.28
2022-11-15T04:04:14.368Z,94.75
2022-11-15T04:07:00.302Z,100.43
2022-11-15T04:10:04.476Z,106.68
2022-11-15T04:12:50.743Z,99.63
2022-11-15T04:15:37.010Z,108.63
2022-11-15T04:18:23.003Z,98.70
2022-11-15T04:21:42.057Z,96.88
2022-11-15T04:24:27.558Z,104.80
2022-11-15T04:27:14.457Z,96.15
2022-11-15T04:30:00.643Z,99.75
2022-11-15T04:32:46.700Z,102.07
2022-11-15T04:35:33.029Z,97.45
2022-11-15T04:38:18.576Z,90.55
2022-11-15T04:41:05.094Z,98.40
2022-11-15T04:43:50.969Z,95.25
2022-11-15T04:46:37.025Z,97.07
2022-11-15T04:49:22.612Z,100.50
2022-11-15T04:52:08.577Z,92.95
2022-11-15T04:54:54.245Z,82.85
2022-11-15T04:57:40.116Z,97.82
2022-11-15T05:00:28.983Z,91.88
2022-11-15T05:03:37.106Z,93.63
2022-11-15T05:06:23.471Z,93.80
2022-11-15T05:09:09.926Z,93.93
2022-11-15T05:11:55.454Z,98.68
2022-11-15T05:14:41.530Z,89.53
2022-11-15T05:17:27.377Z,88.80
2022-11-15T05:20:13.788Z,88.20
2022-11-15T05:22:59.508Z,89.03
2022-11-15T05:25:45.258Z,87.57
2022-11-15T05:28:31.557Z,94.28
2022-11-15T05:31:20.306Z,90.00
2022-11-15T05:34:06.950Z,87.70
2022-11-15T05:36:52.832Z,88.95
2022-11-15T05:39:39.297Z,91.13
2022-11-15T05:42:28.284Z,91.35
2022-11-15T05:45:14.364Z,89.45
2022-11-15T05:52:14.805Z,95.65
2022-11-15T05:55:04.449Z,86.63
2022-11-15T05:57:50.487Z,91.20
2022-11-15T06:00:36.970Z,93.28
2022-11-15T06:03:22.841Z,89.15
2022-11-15T06:06:12.324Z,89.35
2022-11-15T06:11:51.594Z,91.80
2022-11-15T06:14:37.352Z,89.30
2022-11-15T06:17:23.616Z,94.75
2022-11-15T06:20:10.070Z,93.75
2022-11-15T06:23:05.118Z,99.55
2022-11-15T06:26:19.500Z,93.63
2022-11-15T06:29:06.063Z,87.03
2022-11-15T06:31:52.212Z,88.75
2022-11-15T06:34:37.898Z,94.35
2022-11-15T06:37:40.579Z,98.40
2022-11-15T06:40:26.121Z,85.67
2022-11-15T06:43:11.681Z,93.93
2022-11-15T06:46:00.494Z,82.00
2022-11-15T06:48:46.379Z,100.80
2022-11-15T06:52:11.864Z,103.47
2022-11-15T06:55:13.064Z,89.30
2022-11-15T06:58:24.610Z,89.53
2022-11-15T07:01:13.820Z,83.93
2022-11-15T07:03:59.773Z,79.90
2022-11-15T07:07:11.110Z,89.88
2022-11-15T07:09:57.312Z,95.50
2022-11-15T07:12:42.991Z,78.05
2022-11-15T07:15:28.638Z,83.03
2022-11-15T07:18:25.831Z,91.20
2022-11-15T07:21:16.468Z,89.18
2022-11-15T07:24:13.935Z,83.07
2022-11-15T07:26:59.582Z,80.57
2022-11-15T07:29:45.684Z,83.03
2022-11-15T07:32:31.944Z,72.97
2022-11-15T07:35:17.949Z,77.10
2022-11-15T07:38:04.719Z,86.95
2022-11-15T07:40:59.420Z,78.93
2022-11-15T07:43:45.054Z,81.93
2022-11-15T07:46:30.542Z,71.78
2022-11-15T07:49:16.493Z,76.72
2022-11-15T07:52:02.528Z,81.55
2022-11-15T07:54:48.218Z,74.78
2022-11-15T07:57:34.205Z,75.72
2022-11-15T08:00:20.995Z,75.85
2022-11-15T08:03:15.173Z,71.03
2022-11-15T08:06:22.832Z,69.72
2022-11-15T08:09:10.534Z,67.97
2022-11-15T08:11:56.595Z,69.32
2022-11-15T08:14:42.672Z,63.03
2022-11-15T08:17:28.768Z,67.53
2022-11-15T08:20:14.701Z,67.18
2022-11-15T08:23:03.451Z,64.40
2022-11-15T08:25:49.504Z,64.72
2022-11-15T08:28:35.404Z,64.18
2022-11-15T08:31:21.054Z,57.95
2022-11-15T08:34:07.496Z,64.13
2022-11-15T08:36:53.030Z,67.63
2022-11-15T08:39:38.981Z,60.15
2022-11-15T08:42:25.227Z,59.85
2022-11-15T08:45:11.059Z,53.60
2022-11-15T08:48:03.650Z,54.88
2022-11-15T08:50:49.587Z,50.00
2022-11-15T08:53:36.129Z,51.25
2022-11-15T08:56:41.227Z,54.35
2022-11-15T08:59:27.598Z,49.88
2022-11-15T09:02:15.692Z,48.72
2022-11-15T09:05:01.345Z,48.03
2022-11-15T09:07:47.693Z,45.28
2022-11-15T09:10:33.823Z,47.80
2022-11-15T09:13:19.765Z,50.03
2022-11-15T09:16:10.766Z,41.53
2022-11-15T09:18:57.182Z,40.70
2022-11-15T09:21:44.109Z,46.03
2022-11-15T09:24:29.944Z,50.15
2022-11-15T09:27:16.471Z,46.67
2022-11-15T09:30:02.374Z,47.63
2022-11-15T09:32:51.263Z,43.03
2022-11-15T09:35:38.055Z,48.20
2022-11-15T09:38:23.921Z,51.28
2022-11-15T09:41:15.584Z,46.05
2022-11-15T09:44:34.742Z,48.53
2022-11-15T09:48:06.429Z,49.13
2022-11-15T09:50:59.970Z,47.05
2022-11-15T09:56:33.801Z,51.15
2022-11-15T09:59:41.989Z,43.90
2022-11-15T10:02:09.769Z,46.00
2022-11-15T10:04:41.467Z,44.97
2022-11-15T10:07:35.263Z,44.77
2022-11-15T10:10:22.392Z,39.28
2022-11-15T10:12:53.739Z,41.10
2022-11-15T10:15:24.043Z,38.60
2022-11-15T10:18:17.268Z,34.92
2022-11-15T10:20:59.539Z,36.33
2022-11-15T10:23:29.045Z,38.78
2022-11-15T10:26:06.646Z,38.65
2022-11-15T10:28:34.658Z,35.97
2022-11-15T10:31:03.253Z,38.95
2022-11-15T10:33:37.671Z,35.13
2022-11-15T10:36:13.435Z,35.13
2022-11-15T10:38:51.634Z,32.20
2022-11-15T10:41:28.119Z,37.20
2022-11-15T10:44:21.681Z,37.20
2022-11-15T10:46:57.691Z,30.15
2022-11-15T10:49:29.805Z,35.97
2022-11-15T10:52:14.992Z,31.58
2022-11-15T10:54:57.094Z,32.75
2022-11-15T10:57:39.400Z,30.52
2022-11-15T11:01:11.326Z,32.78
2022-11-15T11:03:39.745Z,33.38
2022-11-15T11:14:44.189Z,31.92
2022-11-15T11:18:41.363Z,29.52
2022-11-15T11:28:58.763Z,30.00
2022-11-15T11:30:48.829Z,27.97
2022-11-15T11:34:21.765Z,30.70
2022-11-15T11:37:47.044Z,29.08
2022-11-15T11:40:32.004Z,32.60
2022-11-15T11:43:09.782Z,30.75
2022-11-15T11:46:08.533Z,28.42
2022-11-15T11:48:52.781Z,31.58
2022-11-15T11:51:29.727Z,28.52
2022-11-15T11:54:13.007Z,28.83
2022-11-15T11:56:44.305Z,31.55
2022-11-15T11:59:41.243Z,28.33
2022-11-15T12:02:41.941Z,30.30
2022-11-15T12:05:51.213Z,25.25
2022-11-15T12:08:39.896Z,31.23
2022-11-15T12:15:34.828Z,31.70
2022-11-15T12:18:22.916Z,27.00
2022-11-15T12:22:15.679Z,29.60
2022-11-15T12:28:31.614Z,26.25
2022-11-15T12:31:35.963Z,29.85
2022-11-15T12:34:39.100Z,28.30
2022-11-15T12:37:38.839Z,29.33
2022-11-15T12:40:32.393Z,31.33
2022-11-15T12:43:47.248Z,27.63
2022-11-15T12:46:36.742Z,28.23
2022-11-15T12:49:44.269Z,25.48
2022-11-15T12:52:11.692Z,26.75
2022-11-15T12:54:41.728Z,29.70
2022-11-15T12:57:09.156Z,29.00
2022-11-15T13:00:02.781Z,26.88
2022-11-15T13:02:35.402Z,32.53
2022-11-15T13:05:20.892Z,28.45
2022-11-15T13:07:48.000Z,26.05
2022-11-15T13:10:15.118Z,28.77
2022-11-15T13:12:45.279Z,28.55
2022-11-15T13:15:18.354Z,30.88
2022-11-15T13:17:57.897Z,29.45
2022-11-15T13:20:34.040Z,24.98
2022-11-15T13:23:17.751Z,29.50
2022-11-15T13:26:09.736Z,26.92
2022-11-15T13:28:50.387Z,28.50
2022-11-15T13:31:27.159Z,27.27
2022-11-15T13:34:02.404Z,25.92
2022-11-15T13:36:35.233Z,28.55
2022-11-15T13:39:15.709Z,30.63
2022-11-15T13:41:51.847Z,26.48
2022-11-15T13:44:30.062Z,29.35
2022-11-15T13:47:14.576Z,30.60
2022-11-15T13:49:42.947Z,28.38
2022-11-15T13:52:15.803Z,32.67
2022-11-15T13:55:00.558Z,37.83
2022-11-15T13:57:40.255Z,29.00
2022-11-15T14:03:15.308Z,36.25
2022-11-15T14:05:43.482Z,33.03
2022-11-15T14:08:25.337Z,37.90
2022-11-15T14:11:21.218Z,33.27
2022-11-15T14:14:13.134Z,40.78
2022-11-15T14:16:55.080Z,38.30
2022-11-15T14:19:22.641Z,34.92
2022-11-15T14:26:11.529Z,40.58
2022-11-15T14:28:40.238Z,36.35
2022-11-15T14:31:14.191Z,35.30
2022-11-15T14:33:42.861Z,34.45
2022-11-15T14:36:17.577Z,37.40
2022-11-15T14:38:45.355Z,40.58
2022-11-15T14:41:21.758Z,39.17
2022-11-15T14:43:49.997Z,35.47
2022-11-15T14:46:17.617Z,39.35
2022-11-15T14:48:44.843Z,37.00
2022-11-15T14:51:18.259Z,40.63
2022-11-15T14:53:47.598Z,36.42
2022-11-15T14:56:16.034Z,42.78
2022-11-15T14:58:43.781Z,42.35
2022-11-15T15:01:27.153Z,37.33
2022-11-15T15:03:58.152Z,40.42
2022-11-15T15:06:27.415Z,43.70
2022-11-15T15:08:54.750Z,37.67
2022-11-15T15:11:28.289Z,39.00
2022-11-15T15:13:58.132Z,34.15
2022-11-15T15:16:25.908Z,40.25
2022-11-15T15:18:54.841Z,36.25
2022-11-15T15:21:33.686Z,44.78
2022-11-15T15:24:03.241Z,38.75
2022-11-15T15:26:30.406Z,42.25
2022-11-15T15:28:57.528Z,39.85
2022-11-15T15:31:24.652Z,38.85
2022-11-15T15:33:53.973Z,37.83
2022-11-15T15:36:21.308Z,42.42
2022-11-15T15:38:48.464Z,41.38
2022-11-15T15:41:26.842Z,41.63
2022-11-15T15:44:01.478Z,43.22
2022-11-15T15:46:28.952Z,38.58
2022-11-15T15:48:56.103Z,38.83
2022-11-15T15:51:23.728Z,40.20
2022-11-15T15:53:52.576Z,37.38
2022-11-15T15:56:20.166Z,38.00
2022-11-15T15:58:47.303Z,37.25
2022-11-15T16:01:14.480Z,39.15
2022-11-15T16:03:41.763Z,41.90
2022-11-15T16:06:37.197Z,40.45
2022-11-15T16:09:39.987Z,43.78
2022-11-15T16:12:07.890Z,43.75
2022-11-15T16:14:49.110Z,40.28
2022-11-15T16:17:28.985Z,44.58
2022-11-15T16:20:27.603Z,41.05
2022-11-15T16:26:35.963Z,41.28
2022-11-15T16:29:06.466Z,39.67
2022-11-15T16:38:20.395Z,39.38
2022-11-15T16:53:47.028Z,44.70
2022-11-15T16:59:38.346Z,44.92
2022-11-15T17:02:12.459Z,39.80
2022-11-15T17:04:39.725Z,41.45
2022-11-15T17:07:07.141Z,46.10
2022-11-15T17:09:34.454Z,42.30
2022-11-15T17:12:01.578Z,44.97
2022-11-15T17:14:33.272Z,41.75
2022-11-15T17:17:00.803Z,43.67
2022-11-15T17:19:29.157Z,42.22
2022-11-15T17:21:56.358Z,36.10
2022-11-15T17:24:23.548Z,40.95
2022-11-15T17:26:51.071Z,41.90
2022-11-15T17:29:19.181Z,41.42
2022-11-15T17:31:49.070Z,42.95
2022-11-15T17:34:16.243Z,43.63
2022-11-15T17:36:43.458Z,44.15
2022-11-15T17:39:11.005Z,42.42
2022-11-15T17:41:38.152Z,41.25
2022-11-15T17:44:12.860Z,50.03
2022-11-15T17:46:40.778Z,43.05
2022-11-15T17:49:15.219Z,41.05
2022-11-15T17:51:45.072Z,41.70
2022-11-15T17:54:21.841Z,42.60
2022-11-15T17:56:49.122Z,41.35
2022-11-15T17:59:21.165Z,40.20
2022-11-15T18:04:17.216Z,40.25
2022-11-15T18:06:53.320Z,38.40
2022-11-15T18:09:24.828Z,41.92
2022-11-15T18:11:54.418Z,39.90
2022-11-15T18:14:22.609Z,42.10
2022-11-15T18:16:49.721Z,40.35
2022-11-15T18:19:16.962Z,41.42
2022-11-15T18:21:57.796Z,46.17
2022-11-15T18:24:31.124Z,37.60
2022-11-15T18:27:00.638Z,44.42
2022-11-15T18:29:28.089Z,45.75
2022-11-15T18:31:55.887Z,49.47
2022-11-15T18:34:26.451Z,43.83
2022-11-15T18:36:54.178Z,42.78
2022-11-15T18:39:30.861Z,49.05
2022-11-15T18:41:58.785Z,45.90
2022-11-15T18:44:27.883Z,44.72
2022-11-15T18:46:55.297Z,44.88
2022-11-15T18:49:22.619Z,42.95
2022-11-15T18:51:49.799Z,41.65
2022-11-15T18:54:18.153Z,43.85
2022-11-15T18:56:45.988Z,42.53
2022-11-15T18:59:15.349Z,43.03
2022-11-15T19:01:50.151Z,37.03
2022-11-15T19:04:20.239Z,38.83
2022-11-15T19:06:50.010Z,42.08
2022-11-15T19:09:19.393Z,43.53
2022-11-15T19:11:48.764Z,41.50
2022-11-15T19:14:18.622Z,40.97
2022-11-15T19:16:52.648Z,37.30
2022-11-15T19:19:24.456Z,38.33
2022-11-15T19:21:52.902Z,36.47
2022-11-15T19:24:20.526Z,38.83
2022-11-15T19:26:47.710Z,43.75
2022-11-15T19:29:15.653Z,43.15
2022-11-15T19:31:43.636Z,39.75
2022-11-15T19:34:11.270Z,40.47
2022-11-15T19:36:44.547Z,40.58
2022-11-15T19:39:15.049Z,41.58
2022-11-15T19:41:44.335Z,37.17
2022-11-15T19:44:15.317Z,41.22
2022-11-15T19:46:44.272Z,39.17
2022-11-15T19:49:37.910Z,46.38
2022-11-15T19:52:06.101Z,39.97
2022-11-15T19:54:36.999Z,39.53
2022-11-15T19:57:04.444Z,40.10
2022-11-15T19:59:31.687Z,39.25
2022-11-15T20:01:58.977Z,39.10
2022-11-15T20:04:26.185Z,35.65
2022-11-15T20:07:28.195Z,37.53
2022-11-15T20:09:55.451Z,35.47
2022-11-15T20:12:41.882Z,39.97
2022-11-15T20:15:09.757Z,32.67
2022-11-15T20:17:36.817Z,45.70
2022-11-15T20:20:04.559Z,37.03
2022-11-15T20:22:31.613Z,36.63
2022-11-15T20:24:58.935Z,37.80
2022-11-15T20:27:26.439Z,37.10
2022-11-15T20:29:54.567Z,33.03
2022-11-15T20:32:21.672Z,36.85
2022-11-15T20:34:53.854Z,40.55
2022-11-15T20:37:22.368Z,35.75
2022-11-15T20:39:49.654Z,36.33
2022-11-15T20:42:16.784Z,40.47
2022-11-15T20:44:43.787Z,36.85
2022-11-15T20:47:11.115Z,31.75
2022-11-15T20:49:38.468Z,32.33
2022-11-15T20:52:06.603Z,31.33
2022-11-15T20:54:33.857Z,38.53
2022-11-15T20:57:27.429Z,25.52
2022-11-15T21:11:38.393Z,32.92
2022-11-15T21:14:43.138Z,37.88
2022-11-15T21:17:23.624Z,33.42
2022-11-15T21:19:55.388Z,34.47
2022-11-15T21:22:30.198Z,32.95
2022-11-15T21:25:12.757Z,33.78
2022-11-15T21:31:00.918Z,33.35
2022-11-15T21:39:26.377Z,34.70
2022-11-15T21:42:23.189Z,31.15
2022-11-15T21:45:18.287Z,31.30
2022-11-15T22:13:20.160Z,29.25
2022-11-15T22:19:53.137Z,31.00
2022-11-15T23:03:23.631Z,31.38
2022-11-15T23:05:51.744Z,27.52
2022-11-15T23:08:20.271Z,25.40
2022-11-15T23:23:26.289Z,25.77
2022-11-15T23:26:15.096Z,23.63
2022-11-15T23:28:47.868Z,28.42
2022-11-15T23:31:33.890Z,27.45
2022-11-15T23:34:05.308Z,25.20
2022-11-15T23:37:13.019Z,24.33
2022-11-15T23:39:49.499Z,30.20
2022-11-15T23:42:56.102Z,27.20
2022-11-15T23:46:02.078Z,23.50
2022-11-15T23:49:47.882Z,23.38
2022-11-15T23:53:01.902Z,24.13
